createdAt,value
2018-03-22T00:00:01.424Z,-1.8
2018-03-22T00:00:51.482Z,-1.8
2018-03-22T00:01:41.255Z,-1.8
2018-03-22T00:02:31.891Z,-1.8
2018-03-22T00:03:21.813Z,-1.8
2018-03-22T00:04:10.875Z,-1.8
2018-03-22T00:05:01.517Z,-1.8
2018-03-22T00:05:51.257Z,-1.8
2018-03-22T00:06:41.717Z,-1.8
2018-03-22T00:07:31.166Z,-1.8
2018-03-22T00:08:21.813Z,-1.8
2018-03-22T00:09:12.080Z,-1.9
2018-03-22T00:10:01.354Z,-1.8
2018-03-22T00:10:51.686Z,-1.8
2018-03-22T00:11:42.228Z,-1.8
2018-03-22T00:12:31.827Z,-1.8
2018-03-22T00:13:22.339Z,-1.8
2018-03-22T00:14:11.728Z,-1.9
2018-03-22T00:15:01.609Z,-1.8
2018-03-22T00:15:51.978Z,-1.9
2018-03-22T00:16:42.400Z,-1.9
2018-03-22T00:17:32.361Z,-1.9
2018-03-22T00:18:22.730Z,-1.9
2018-03-22T00:19:12.236Z,-1.9
2018-03-22T00:20:02.959Z,-1.9
2018-03-22T00:20:52.621Z,-1.9
2018-03-22T00:21:42.912Z,-1.9
2018-03-22T00:22:33.005Z,-1.9
2018-03-22T00:23:22.869Z,-1.9
2018-03-22T00:24:12.837Z,-1.9
2018-03-22T00:25:03.158Z,-1.9
2018-03-22T00:25:52.679Z,-1.9
2018-03-22T00:26:43.302Z,-1.9
2018-03-22T00:27:33.315Z,-1.9
2018-03-22T00:28:23.415Z,-1.9
2018-03-22T00:29:13.490Z,-1.9
2018-03-22T00:30:03.036Z,-1.9
2018-03-22T00:30:52.910Z,-1.9
2018-03-22T00:31:43.455Z,-1.9
2018-03-22T00:32:33.672Z,-1.9
2018-03-22T00:33:23.463Z,-1.9
2018-03-22T00:34:13.525Z,-1.9
2018-03-22T00:35:02.679Z,-1.9
2018-03-22T00:35:53.337Z,-1.9
2018-03-22T00:36:43.691Z,-1.9
2018-03-22T00:37:33.262Z,-1.9
2018-03-22T00:38:23.827Z,-1.9
2018-03-22T00:39:14.671Z,-1.9
2018-03-22T00:40:03.941Z,-1.9
2018-03-22T00:40:53.999Z,-1.9
2018-03-22T00:41:43.659Z,-1.9
2018-03-22T00:42:34.706Z,-1.9
2018-03-22T00:43:24.176Z,-1.9
2018-03-22T00:44:13.520Z,-1.9
2018-03-22T00:45:04.384Z,-1.9
2018-03-22T00:45:54.238Z,-1.9
2018-03-22T00:46:43.994Z,-1.9
2018-03-22T00:47:34.449Z,-1.9
2018-03-22T00:48:23.738Z,-1.9
2018-03-22T00:49:14.844Z,-1.9
2018-03-22T00:50:04.727Z,-1.9
2018-03-22T00:50:54.686Z,-1.9
2018-03-22T00:51:44.924Z,-1.9
2018-03-22T00:52:34.836Z,-1.9
2018-03-22T00:53:25.175Z,-1.9
2018-03-22T00:54:14.703Z,-1.9
2018-03-22T00:55:04.377Z,-1.9
2018-03-22T00:55:55.021Z,-1.9
2018-03-22T00:56:44.898Z,-1.9
2018-03-22T00:57:35.342Z,-1.9
2018-03-22T00:58:24.929Z,-1.9
2018-03-22T00:59:14.982Z,-1.9
2018-03-22T01:00:05.302Z,-1.9
2018-03-22T01:00:55.696Z,-1.9
2018-03-22T01:01:45.240Z,-1.9
2018-03-22T01:02:35.790Z,-1.9
2018-03-22T01:03:25.573Z,-1.9
2018-03-22T01:04:15.923Z,-1.9
2018-03-22T01:05:05.491Z,-1.9
2018-03-22T01:05:55.741Z,-1.9
2018-03-22T01:06:46.060Z,-1.9
2018-03-22T01:07:36.137Z,-1.9
2018-03-22T01:08:25.505Z,-1.9
2018-03-22T01:09:16.272Z,-1.9
2018-03-22T01:10:05.596Z,-1.9
2018-03-22T01:10:56.368Z,-1.9
2018-03-22T01:11:46.267Z,-1.9
2018-03-22T01:12:36.000Z,-1.9
2018-03-22T01:13:26.567Z,-1.9
2018-03-22T01:14:16.016Z,-1.9
2018-03-22T01:15:06.077Z,-1.9
2018-03-22T01:15:56.429Z,-1.9
2018-03-22T01:16:46.489Z,-1.9
2018-03-22T01:17:36.867Z,-1.9
2018-03-22T01:18:26.129Z,-1.9
2018-03-22T01:19:16.485Z,-1.9
2018-03-22T01:20:06.450Z,-1.9
2018-03-22T01:20:56.597Z,-1.9
2018-03-22T01:21:46.839Z,-1.9
2018-03-22T01:22:36.689Z,-1.9
2018-03-22T01:23:26.562Z,-1.9
2018-03-22T01:24:17.025Z,-1.9
2018-03-22T01:25:06.880Z,-1.9
2018-03-22T01:25:56.644Z,-1.9
2018-03-22T01:26:47.780Z,-1.9
2018-03-22T01:27:36.756Z,-1.9
2018-03-22T01:28:27.364Z,-1.9
2018-03-22T01:29:16.577Z,-1.9
2018-03-22T01:30:07.235Z,-1.9
2018-03-22T01:30:56.986Z,-1.9
2018-03-22T01:31:47.233Z,-1.9
2018-03-22T01:32:37.609Z,-1.9
2018-03-22T01:33:27.684Z,-1.9
2018-03-22T01:34:17.801Z,-1.9
2018-03-22T01:35:08.374Z,-1.9
2018-03-22T01:35:57.840Z,-1.9
2018-03-22T01:36:48.187Z,-1.9
2018-03-22T01:37:38.351Z,-1.9
2018-03-22T01:38:27.419Z,-1.9
2018-03-22T01:39:18.344Z,-1.9
2018-03-22T01:40:08.146Z,-1.9
2018-03-22T01:40:57.973Z,-1.9
2018-03-22T01:41:47.841Z,-1.9
2018-03-22T01:42:38.031Z,-1.9
2018-03-22T01:43:28.648Z,-1.9
2018-03-22T01:44:18.207Z,-1.9
2018-03-22T01:45:08.239Z,-1.9
2018-03-22T01:45:58.551Z,-1.9
2018-03-22T01:46:48.583Z,-1.9
2018-03-22T01:47:38.673Z,-1.9
2018-03-22T01:48:29.298Z,-1.9
2018-03-22T01:49:19.026Z,-2
2018-03-22T01:50:08.803Z,-2
2018-03-22T01:50:58.671Z,-2
2018-03-22T01:51:49.219Z,-1.9
2018-03-22T01:52:38.582Z,-2
2018-03-22T01:53:29.357Z,-2
2018-03-22T01:54:18.923Z,-2
2018-03-22T01:55:09.168Z,-2
2018-03-22T01:55:59.334Z,-2
2018-03-22T01:56:49.273Z,-1.9
2018-03-22T01:57:39.042Z,-2
2018-03-22T01:58:30.275Z,-2
2018-03-22T01:59:18.975Z,-2
2018-03-22T02:00:09.838Z,-2
2018-03-22T02:00:59.560Z,-2
2018-03-22T02:01:50.084Z,-2
2018-03-22T02:02:40.263Z,-2
2018-03-22T02:03:30.057Z,-2
2018-03-22T02:04:19.900Z,-2
2018-03-22T02:05:09.669Z,-2
2018-03-22T02:05:59.814Z,-2.1
2018-03-22T02:06:49.967Z,-2
2018-03-22T02:07:39.767Z,-2.1
2018-03-22T02:08:29.896Z,-2
2018-03-22T02:09:20.144Z,-2
2018-03-22T02:10:10.048Z,-2.1
2018-03-22T02:11:00.165Z,-2
2018-03-22T02:11:50.636Z,-2.1
2018-03-22T02:12:40.360Z,-2.1
2018-03-22T02:13:30.060Z,-2
2018-03-22T02:14:19.899Z,-2.1
2018-03-22T02:15:10.577Z,-2
2018-03-22T02:16:00.628Z,-2
2018-03-22T02:16:50.667Z,-2.1
2018-03-22T02:17:40.463Z,-2.1
2018-03-22T02:18:31.102Z,-2.1
2018-03-22T02:19:20.874Z,-2
2018-03-22T02:20:10.723Z,-2.1
2018-03-22T02:21:00.971Z,-2.1
2018-03-22T02:21:50.622Z,-2
2018-03-22T02:22:41.174Z,-2
2018-03-22T02:23:31.045Z,-2.1
2018-03-22T02:24:21.494Z,-2
2018-03-22T02:25:11.562Z,-2
2018-03-22T02:26:01.054Z,-2
2018-03-22T02:26:51.677Z,-2.1
2018-03-22T02:27:41.448Z,-2
2018-03-22T02:28:31.499Z,-2
2018-03-22T02:29:21.289Z,-2
2018-03-22T02:30:11.901Z,-2
2018-03-22T02:31:01.471Z,-2
2018-03-22T02:31:51.449Z,-2
2018-03-22T02:32:41.301Z,-2.1
2018-03-22T02:33:31.860Z,-2.1
2018-03-22T02:34:21.894Z,-2
2018-03-22T02:35:11.662Z,-2
2018-03-22T02:36:00.954Z,-2.1
2018-03-22T02:36:52.369Z,-2.1
2018-03-22T02:37:42.238Z,-2.1
2018-03-22T02:38:31.902Z,-2.1
2018-03-22T02:39:22.075Z,-2.1
2018-03-22T02:40:12.633Z,-2.1
2018-03-22T02:41:02.637Z,-2.1
2018-03-22T02:41:52.248Z,-2.1
2018-03-22T02:42:42.109Z,-2.1
2018-03-22T02:43:32.269Z,-2.1
2018-03-22T02:44:23.200Z,-2.1
2018-03-22T02:45:12.480Z,-2.1
2018-03-22T02:46:02.425Z,-2.1
2018-03-22T02:46:53.102Z,-2.1
2018-03-22T02:47:42.871Z,-2.1
2018-03-22T02:48:32.790Z,-2.1
2018-03-22T02:49:22.976Z,-2.1
2018-03-22T02:50:13.289Z,-2.1
2018-03-22T02:51:03.412Z,-2.1
2018-03-22T02:51:52.926Z,-2.1
2018-03-22T02:52:43.270Z,-2.2
2018-03-22T02:53:33.242Z,-2.2
2018-03-22T02:54:22.915Z,-2.2
2018-03-22T02:55:13.379Z,-2.3
2018-03-22T02:56:03.137Z,-2.2
2018-03-22T02:56:53.495Z,-2.3
2018-03-22T02:57:43.047Z,-2.3
2018-03-22T02:58:33.305Z,-2.3
2018-03-22T02:59:23.384Z,-2.3
2018-03-22T03:00:13.822Z,-2.3
2018-03-22T03:01:03.493Z,-2.3
2018-03-22T03:01:54.120Z,-2.3
2018-03-22T03:02:43.601Z,-2.3
2018-03-22T03:03:33.648Z,-2.3
2018-03-22T03:04:23.530Z,-2.3
2018-03-22T03:05:13.875Z,-2.3
2018-03-22T03:06:03.920Z,-2.3
2018-03-22T03:06:54.007Z,-2.3
2018-03-22T03:07:44.239Z,-2.3
2018-03-22T03:08:34.584Z,-2.3
2018-03-22T03:09:23.952Z,-2.3
2018-03-22T03:10:13.712Z,-2.3
2018-03-22T03:11:04.282Z,-2.3
2018-03-22T03:11:53.654Z,-2.3
2018-03-22T03:12:44.471Z,-2.3
2018-03-22T03:13:34.724Z,-2.4
2018-03-22T03:14:24.766Z,-2.3
2018-03-22T03:15:14.574Z,-2.4
2018-03-22T03:16:04.893Z,-2.4
2018-03-22T03:16:54.888Z,-2.4
2018-03-22T03:17:44.718Z,-2.4
2018-03-22T03:18:34.791Z,-2.4
2018-03-22T03:19:25.343Z,-2.4
2018-03-22T03:20:15.108Z,-2.4
2018-03-22T03:21:05.245Z,-2.4
2018-03-22T03:21:55.492Z,-2.4
2018-03-22T03:22:44.715Z,-2.4
2018-03-22T03:23:35.613Z,-2.3
2018-03-22T03:24:25.111Z,-2.3
2018-03-22T03:25:15.255Z,-2.3
2018-03-22T03:26:05.497Z,-2.3
2018-03-22T03:26:55.063Z,-2.4
2018-03-22T03:27:45.625Z,-2.4
2018-03-22T03:28:35.705Z,-2.4
2018-03-22T03:29:26.033Z,-2.4
2018-03-22T03:30:15.553Z,-2.4
2018-03-22T03:31:05.876Z,-2.4
2018-03-22T03:31:55.989Z,-2.3
2018-03-22T03:32:45.993Z,-2.3
2018-03-22T03:33:35.755Z,-2.3
2018-03-22T03:34:26.677Z,-2.3
2018-03-22T03:35:15.860Z,-2.4
2018-03-22T03:36:06.030Z,-2.3
2018-03-22T03:36:56.292Z,-2.4
2018-03-22T03:37:45.849Z,-2.4
2018-03-22T03:38:35.602Z,-2.4
2018-03-22T03:39:26.217Z,-2.4
2018-03-22T03:40:16.515Z,-2.4
2018-03-22T03:41:06.653Z,-2.3
2018-03-22T03:41:56.322Z,-2.4
2018-03-22T03:42:46.782Z,-2.3
2018-03-22T03:43:37.367Z,-2.3
2018-03-22T03:44:26.798Z,-2.3
2018-03-22T03:45:17.158Z,-2.4
2018-03-22T03:46:06.419Z,-2.3
2018-03-22T03:46:56.978Z,-2.4
2018-03-22T03:47:46.462Z,-2.4
2018-03-22T03:48:37.262Z,-2.3
2018-03-22T03:49:26.665Z,-2.3
2018-03-22T03:50:17.083Z,-2.3
2018-03-22T03:51:07.571Z,-2.3
2018-03-22T03:51:57.121Z,-2.3
2018-03-22T03:52:47.981Z,-2.3
2018-03-22T03:53:37.429Z,-2.3
2018-03-22T03:54:27.482Z,-2.4
2018-03-22T03:55:17.356Z,-2.4
2018-03-22T03:56:07.630Z,-2.4
2018-03-22T03:56:57.455Z,-2.3
2018-03-22T03:57:48.011Z,-2.3
2018-03-22T03:58:38.053Z,-2.3
2018-03-22T03:59:28.158Z,-2.3
2018-03-22T04:00:17.686Z,-2.4
2018-03-22T04:01:08.247Z,-2.4
2018-03-22T04:01:57.827Z,-2.3
2018-03-22T04:02:48.070Z,-2.4
2018-03-22T04:03:37.924Z,-2.4
2018-03-22T04:04:28.199Z,-2.4
2018-03-22T04:05:18.823Z,-2.4
2018-03-22T04:06:08.360Z,-2.4
2018-03-22T04:06:57.782Z,-2.4
2018-03-22T04:07:48.419Z,-2.4
2018-03-22T04:08:38.275Z,-2.4
2018-03-22T04:09:28.823Z,-2.4
2018-03-22T04:10:18.590Z,-2.4
2018-03-22T04:11:08.993Z,-2.4
2018-03-22T04:11:59.308Z,-2.3
2018-03-22T04:12:49.332Z,-2.3
2018-03-22T04:13:39.413Z,-2.4
2018-03-22T04:14:28.892Z,-2.4
2018-03-22T04:15:18.945Z,-2.4
2018-03-22T04:16:09.009Z,-2.4
2018-03-22T04:16:59.405Z,-2.4
2018-03-22T04:17:48.927Z,-2.4
2018-03-22T04:18:38.885Z,-2.4
2018-03-22T04:19:28.939Z,-2.3
2018-03-22T04:20:19.578Z,-2.3
2018-03-22T04:21:09.173Z,-2.3
2018-03-22T04:21:59.090Z,-2.3
2018-03-22T04:22:49.270Z,-2.3
2018-03-22T04:23:39.510Z,-2.3
2018-03-22T04:24:29.677Z,-2.3
2018-03-22T04:25:19.045Z,-2.3
2018-03-22T04:26:09.396Z,-2.3
2018-03-22T04:26:59.462Z,-2.3
2018-03-22T04:27:50.162Z,-2.3
2018-03-22T04:28:39.870Z,-2.3
2018-03-22T04:29:29.946Z,-2.3
2018-03-22T04:30:20.564Z,-2.3
2018-03-22T04:31:10.339Z,-2.3
2018-03-22T04:32:00.108Z,-2.3
2018-03-22T04:32:50.468Z,-2.3
2018-03-22T04:33:40.208Z,-2.3
2018-03-22T04:34:30.542Z,-2.3
2018-03-22T04:35:20.631Z,-2.3
2018-03-22T04:36:09.915Z,-2.3
2018-03-22T04:36:59.960Z,-2.3
2018-03-22T04:37:50.513Z,-2.3
2018-03-22T04:38:40.439Z,-2.3
2018-03-22T04:39:30.629Z,-2.3
2018-03-22T04:40:20.660Z,-2.3
2018-03-22T04:41:10.640Z,-2.3
2018-03-22T04:42:00.493Z,-2.3
2018-03-22T04:42:51.162Z,-2.3
2018-03-22T04:43:40.229Z,-2.3
2018-03-22T04:44:30.999Z,-2.3
2018-03-22T04:45:21.041Z,-2.3
2018-03-22T04:46:10.489Z,-2.3
2018-03-22T04:47:00.380Z,-2.3
2018-03-22T04:47:51.207Z,-2.3
2018-03-22T04:48:41.560Z,-2.3
2018-03-22T04:49:31.328Z,-2.3
2018-03-22T04:50:21.392Z,-2.3
2018-03-22T04:51:10.747Z,-2.3
2018-03-22T04:52:01.110Z,-2.3
2018-03-22T04:52:51.265Z,-2.3
2018-03-22T04:53:41.883Z,-2.3
2018-03-22T04:54:31.968Z,-2.3
2018-03-22T04:55:22.006Z,-2.3
2018-03-22T04:56:12.079Z,-2.3
2018-03-22T04:57:01.810Z,-2.3
2018-03-22T04:57:52.473Z,-2.3
2018-03-22T04:58:42.237Z,-2.3
2018-03-22T04:59:32.321Z,-2.3
2018-03-22T05:00:22.094Z,-2.4
2018-03-22T05:01:12.144Z,-2.3
2018-03-22T05:02:01.914Z,-2.3
2018-03-22T05:02:52.527Z,-2.4
2018-03-22T05:03:42.577Z,-2.4
2018-03-22T05:04:32.642Z,-2.4
2018-03-22T05:05:22.978Z,-2.3
2018-03-22T05:06:12.802Z,-2.4
2018-03-22T05:07:02.872Z,-2.4
2018-03-22T05:07:53.173Z,-2.4
2018-03-22T05:08:42.649Z,-2.4
2018-03-22T05:09:33.264Z,-2.4
2018-03-22T05:10:23.356Z,-2.4
2018-03-22T05:11:13.382Z,-2.4
2018-03-22T05:12:03.481Z,-2.4
2018-03-22T05:12:53.217Z,-2.4
2018-03-22T05:13:43.058Z,-2.4
2018-03-22T05:14:33.648Z,-2.4
2018-03-22T05:15:23.474Z,-2.4
2018-03-22T05:16:13.184Z,-2.4
2018-03-22T05:17:03.528Z,-2.3
2018-03-22T05:17:53.565Z,-2.3
2018-03-22T05:18:44.153Z,-2.3
2018-03-22T05:19:33.673Z,-2.3
2018-03-22T05:20:23.488Z,-2.3
2018-03-22T05:21:14.094Z,-2.4
2018-03-22T05:22:04.132Z,-2.4
2018-03-22T05:22:53.642Z,-2.4
2018-03-22T05:23:44.302Z,-2.3
2018-03-22T05:24:34.364Z,-2.4
2018-03-22T05:25:24.392Z,-2.4
2018-03-22T05:26:14.418Z,-2.4
2018-03-22T05:27:04.508Z,-2.4
2018-03-22T05:27:54.555Z,-2.4
2018-03-22T05:28:44.617Z,-2.4
2018-03-22T05:29:34.659Z,-2.3
2018-03-22T05:30:24.724Z,-2.3
2018-03-22T05:31:14.794Z,-2.4
2018-03-22T05:32:04.271Z,-2.4
2018-03-22T05:32:54.879Z,-2.4
2018-03-22T05:33:44.938Z,-2.3
2018-03-22T05:34:35.049Z,-2.4
2018-03-22T05:35:25.081Z,-2.4
2018-03-22T05:36:15.108Z,-2.4
2018-03-22T05:37:04.928Z,-2.4
2018-03-22T05:37:55.232Z,-2.3
2018-03-22T05:38:45.295Z,-2.3
2018-03-22T05:39:35.348Z,-2.4
2018-03-22T05:40:25.406Z,-2.3
2018-03-22T05:41:15.458Z,-2.4
2018-03-22T05:42:05.574Z,-2.3
2018-03-22T05:42:55.290Z,-2.3
2018-03-22T05:43:45.460Z,-2.3
2018-03-22T05:44:35.447Z,-2.3
2018-03-22T05:45:24.901Z,-2.3
2018-03-22T05:46:15.338Z,-2.3
2018-03-22T05:47:05.019Z,-2.3
2018-03-22T05:47:55.465Z,-2.3
2018-03-22T05:48:45.717Z,-2.3
2018-03-22T05:49:35.503Z,-2.3
2018-03-22T05:50:25.445Z,-2.3
2018-03-22T05:51:15.116Z,-2.3
2018-03-22T05:52:05.829Z,-2.3
2018-03-22T05:52:55.735Z,-2.2
2018-03-22T05:53:45.770Z,-2.2
2018-03-22T05:54:35.250Z,-2.1
2018-03-22T05:55:25.995Z,-2.1
2018-03-22T05:56:15.564Z,-2.1
2018-03-22T05:57:05.817Z,-2.1
2018-03-22T05:57:56.368Z,-2.1
2018-03-22T05:58:46.426Z,-2.1
2018-03-22T05:59:36.292Z,-2.1
2018-03-22T06:00:26.352Z,-2
2018-03-22T06:01:16.897Z,-2
2018-03-22T06:02:06.280Z,-2
2018-03-22T06:02:56.727Z,-2.1
2018-03-22T06:03:46.570Z,-2
2018-03-22T06:04:35.953Z,-2.1
2018-03-22T06:05:26.302Z,-2.1
2018-03-22T06:06:16.457Z,-2.1
2018-03-22T06:07:06.223Z,-2
2018-03-22T06:07:56.900Z,-2
2018-03-22T06:08:47.574Z,-1.9
2018-03-22T06:09:37.164Z,-1.8
2018-03-22T06:10:27.235Z,-1.8
2018-03-22T06:11:17.367Z,-1.8
2018-03-22T06:12:06.854Z,-1.8
2018-03-22T06:12:56.824Z,-1.8
2018-03-22T06:13:46.894Z,-1.9
2018-03-22T06:14:37.297Z,-1.8
2018-03-22T06:15:27.007Z,-1.8
2018-03-22T06:16:17.617Z,-1.8
2018-03-22T06:17:07.014Z,-1.8
2018-03-22T06:17:57.548Z,-1.8
2018-03-22T06:18:47.230Z,-1.8
2018-03-22T06:19:36.989Z,-1.8
2018-03-22T06:20:27.427Z,-1.8
2018-03-22T06:21:17.885Z,-1.8
2018-03-22T06:22:07.456Z,-1.8
2018-03-22T06:22:57.686Z,-1.8
2018-03-22T06:23:48.156Z,-1.8
2018-03-22T06:24:38.006Z,-1.8
2018-03-22T06:25:27.689Z,-1.8
2018-03-22T06:26:17.765Z,-1.8
2018-03-22T06:27:07.609Z,-1.8
2018-03-22T06:27:58.456Z,-1.8
2018-03-22T06:28:48.550Z,-1.8
2018-03-22T06:29:38.054Z,-1.8
2018-03-22T06:30:27.342Z,-1.8
2018-03-22T06:31:17.983Z,-1.8
2018-03-22T06:32:08.509Z,-1.8
2018-03-22T06:32:58.410Z,-1.7
2018-03-22T06:33:47.880Z,-1.7
2018-03-22T06:34:38.415Z,-1.7
2018-03-22T06:35:28.781Z,-1.6
2018-03-22T06:36:18.541Z,-1.6
2018-03-22T06:37:08.903Z,-1.6
2018-03-22T06:37:58.825Z,-1.6
2018-03-22T06:38:48.906Z,-1.6
2018-03-22T06:39:38.763Z,-1.6
2018-03-22T06:40:28.633Z,-1.6
2018-03-22T06:41:19.017Z,-1.6
2018-03-22T06:42:08.540Z,-1.5
2018-03-22T06:42:58.953Z,-1.5
2018-03-22T06:43:48.650Z,-1.5
2018-03-22T06:44:39.028Z,-1.5
2018-03-22T06:45:29.456Z,-1.4
2018-03-22T06:46:19.261Z,-1.4
2018-03-22T06:47:09.277Z,-1.4
2018-03-22T06:47:59.347Z,-1.5
2018-03-22T06:48:49.313Z,-1.6
2018-03-22T06:49:39.670Z,-1.6
2018-03-22T06:50:29.619Z,-1.7
2018-03-22T06:51:19.574Z,-1.6
2018-03-22T06:52:09.807Z,-1.7
2018-03-22T06:53:00.540Z,-1.7
2018-03-22T06:53:49.847Z,-1.8
2018-03-22T06:54:40.382Z,-1.8
2018-03-22T06:55:29.477Z,-1.8
2018-03-22T06:56:19.769Z,-1.8
2018-03-22T06:57:09.764Z,-1.8
2018-03-22T06:58:00.324Z,-1.9
2018-03-22T06:58:50.087Z,-1.9
2018-03-22T06:59:40.344Z,-1.9
2018-03-22T07:00:30.406Z,-1.9
2018-03-22T07:01:20.354Z,-2
2018-03-22T07:02:10.309Z,-2
2018-03-22T07:03:00.877Z,-2.1
2018-03-22T07:03:50.954Z,-2
2018-03-22T07:04:40.802Z,-2.1
2018-03-22T07:05:30.468Z,-2.1
2018-03-22T07:06:20.807Z,-2.1
2018-03-22T07:07:10.183Z,-2.1
2018-03-22T07:08:00.732Z,-2.1
2018-03-22T07:08:50.990Z,-2.2
2018-03-22T07:09:41.333Z,-2.1
2018-03-22T07:10:30.538Z,-2.2
2018-03-22T07:11:21.154Z,-2.2
2018-03-22T07:12:11.208Z,-2.2
2018-03-22T07:13:01.076Z,-2.2
2018-03-22T07:13:51.633Z,-2.3
2018-03-22T07:14:41.780Z,-2.3
2018-03-22T07:15:31.337Z,-2.2
2018-03-22T07:16:21.390Z,-2.3
2018-03-22T07:17:11.844Z,-2.2
2018-03-22T07:18:01.986Z,-2.3
2018-03-22T07:18:51.779Z,-2.3
2018-03-22T07:19:42.023Z,-2.3
2018-03-22T07:20:31.804Z,-2.3
2018-03-22T07:21:22.016Z,-2.3
2018-03-22T07:22:11.898Z,-2.3
2018-03-22T07:23:01.839Z,-2.3
2018-03-22T07:23:52.030Z,-2.3
2018-03-22T07:24:42.690Z,-2.3
2018-03-22T07:25:31.995Z,-2.2
2018-03-22T07:26:21.987Z,-2.3
2018-03-22T07:27:12.532Z,-2.3
2018-03-22T07:28:02.302Z,-2.3
2018-03-22T07:28:51.958Z,-2.3
2018-03-22T07:29:42.721Z,-2.3
2018-03-22T07:30:32.497Z,-2.3
2018-03-22T07:31:22.814Z,-2.2
2018-03-22T07:32:12.963Z,-2.2
2018-03-22T07:33:02.645Z,-2.2
2018-03-22T07:33:52.754Z,-2.1
2018-03-22T07:34:42.474Z,-2.2
2018-03-22T07:35:33.370Z,-2.2
2018-03-22T07:36:23.141Z,-2.2
2018-03-22T07:37:13.210Z,-2.2
2018-03-22T07:38:03.363Z,-2.2
2018-03-22T07:38:53.349Z,-2.2
2018-03-22T07:39:43.406Z,-2.1
2018-03-22T07:40:32.896Z,-2.1
2018-03-22T07:41:23.239Z,-2.1
2018-03-22T07:42:13.005Z,-2.1
2018-03-22T07:43:03.061Z,-2.1
2018-03-22T07:43:53.035Z,-2.1
2018-03-22T07:44:43.730Z,-2.1
2018-03-22T07:45:33.531Z,-2
2018-03-22T07:46:23.866Z,-2
2018-03-22T07:47:13.667Z,-2
2018-03-22T07:48:03.690Z,-2
2018-03-22T07:48:54.061Z,-2
2018-03-22T07:49:44.199Z,-2
2018-03-22T07:50:33.879Z,-1.9
2018-03-22T07:51:24.204Z,-1.8
2018-03-22T07:52:13.777Z,-1.8
2018-03-22T07:53:04.621Z,-1.8
2018-03-22T07:53:54.092Z,-1.8
2018-03-22T07:54:44.497Z,-1.9
2018-03-22T07:55:34.375Z,-1.8
2018-03-22T07:56:24.548Z,-1.8
2018-03-22T07:57:14.910Z,-1.8
2018-03-22T07:58:04.167Z,-1.7
2018-03-22T07:58:55.148Z,-1.6
2018-03-22T07:59:44.499Z,-1.6
2018-03-22T08:00:34.572Z,-1.7
2018-03-22T08:01:24.035Z,-1.6
2018-03-22T08:02:14.102Z,-1.6
2018-03-22T08:03:04.720Z,-1.5
2018-03-22T08:03:55.085Z,-1.6
2018-03-22T08:04:44.572Z,-1.4
2018-03-22T08:05:35.297Z,-1.4
2018-03-22T08:06:24.964Z,-1.4
2018-03-22T08:07:15.011Z,-1.4
2018-03-22T08:08:05.179Z,-1.3
2018-03-22T08:08:54.726Z,-1.3
2018-03-22T08:09:45.761Z,-1.3
2018-03-22T08:10:35.236Z,-1.4
2018-03-22T08:11:24.798Z,-1.4
2018-03-22T08:12:15.944Z,-1.4
2018-03-22T08:13:05.414Z,-1.3
2018-03-22T08:13:55.281Z,-1.3
2018-03-22T08:14:44.939Z,-1.3
2018-03-22T08:15:35.595Z,-1.1
2018-03-22T08:16:26.209Z,-1.1
2018-03-22T08:17:15.715Z,-1.2
2018-03-22T08:18:06.346Z,-1.2
2018-03-22T08:18:55.433Z,-1.2
2018-03-22T08:19:44.970Z,-1.1
2018-03-22T08:20:36.360Z,-0.9
2018-03-22T08:21:25.770Z,-0.9
2018-03-22T08:22:16.050Z,-0.8
2018-03-22T08:23:05.913Z,-0.8
2018-03-22T08:23:55.463Z,-0.9
2018-03-22T08:26:26.215Z,-1
2018-03-22T08:28:06.621Z,-0.8
2018-03-22T08:28:56.386Z,-0.8
2018-03-22T08:29:46.571Z,-0.6
2018-03-22T08:30:35.641Z,-0.6
2018-03-22T08:31:25.988Z,-0.6
2018-03-22T08:32:16.043Z,-0.4
2018-03-22T08:33:06.610Z,-0.4
2018-03-22T08:33:57.132Z,-0.3
2018-03-22T08:34:47.489Z,-0.4
2018-03-22T08:35:36.698Z,-0.3
2018-03-22T08:36:27.022Z,-0.3
2018-03-22T08:37:17.348Z,0
2018-03-22T08:38:06.920Z,-0.2
2018-03-22T08:38:56.983Z,-0.3
2018-03-22T08:39:47.057Z,-0.1
2018-03-22T08:40:37.004Z,-0.1
2018-03-22T08:41:27.745Z,0
2018-03-22T08:42:17.437Z,-0.1
2018-03-22T08:43:08.058Z,-0.1
2018-03-22T08:43:57.529Z,-0.2
2018-03-22T08:44:47.429Z,-0.1
2018-03-22T08:45:37.262Z,-0.2
2018-03-22T08:46:28.009Z,-0.1
2018-03-22T08:47:17.579Z,-0.1
2018-03-22T08:48:07.828Z,0.1
2018-03-22T08:48:57.979Z,0
2018-03-22T08:49:48.236Z,-0.1
2018-03-22T08:50:38.317Z,-0.1
2018-03-22T08:51:27.970Z,-0.2
2018-03-22T08:52:18.128Z,-0.1
2018-03-22T08:53:08.264Z,-0.1
2018-03-22T08:53:57.949Z,-0.2
2018-03-22T08:54:49.077Z,0
2018-03-22T08:55:38.899Z,0.1
2018-03-22T08:56:28.686Z,0
2018-03-22T08:57:18.540Z,-0.1
2018-03-22T08:58:08.372Z,0
2018-03-22T08:58:58.404Z,0.1
2018-03-22T08:59:48.189Z,0
2018-03-22T09:00:38.701Z,-0.1
2018-03-22T09:01:28.544Z,-0.1
2018-03-22T09:02:18.618Z,0.1
2018-03-22T09:03:08.578Z,0.1
2018-03-22T09:03:58.918Z,-0.1
2018-03-22T09:04:49.268Z,-0.4
2018-03-22T09:05:38.916Z,-0.6
2018-03-22T09:06:29.661Z,-0.7
2018-03-22T09:07:18.943Z,-0.6
2018-03-22T09:08:09.293Z,-0.3
2018-03-22T09:08:59.553Z,-0.3
2018-03-22T09:09:49.463Z,-0.3
2018-03-22T09:10:39.654Z,-0.4
2018-03-22T09:11:29.448Z,-0.4
2018-03-22T09:12:19.300Z,-0.5
2018-03-22T09:13:09.521Z,-0.4
2018-03-22T09:14:00.177Z,-0.4
2018-03-22T09:14:49.454Z,-0.6
2018-03-22T09:15:39.603Z,-0.6
2018-03-22T09:16:29.400Z,-0.5
2018-03-22T09:17:20.106Z,-0.4
2018-03-22T09:18:09.990Z,-0.5
2018-03-22T09:18:59.947Z,-0.6
2018-03-22T09:19:49.933Z,-0.8
2018-03-22T09:20:39.762Z,-0.7
2018-03-22T09:21:29.860Z,-0.7
2018-03-22T09:22:20.277Z,-0.7
2018-03-22T09:23:10.340Z,-0.8
2018-03-22T09:24:00.295Z,-0.7
2018-03-22T09:24:50.671Z,-0.7
2018-03-22T09:25:40.411Z,-0.8
2018-03-22T09:26:30.574Z,-0.9
2018-03-22T09:27:20.347Z,-0.9
2018-03-22T09:28:10.675Z,-0.9
2018-03-22T09:29:00.934Z,-0.8
2018-03-22T09:30:41.377Z,-0.9
2018-03-22T09:31:30.312Z,-0.9
2018-03-22T09:32:20.859Z,-0.8
2018-03-22T09:33:10.958Z,-0.6
2018-03-22T09:34:01.260Z,-0.7
2018-03-22T09:34:51.318Z,-0.7
2018-03-22T09:35:41.200Z,-0.7
2018-03-22T09:36:31.059Z,-0.6
2018-03-22T09:37:20.917Z,-0.5
2018-03-22T09:38:11.652Z,-0.6
2018-03-22T09:39:01.702Z,-0.6
2018-03-22T09:39:51.677Z,-0.5
2018-03-22T09:40:41.157Z,-0.4
2018-03-22T09:41:32.100Z,-0.4
2018-03-22T09:42:21.649Z,-0.4
2018-03-22T09:43:10.929Z,-0.5
2018-03-22T09:44:01.982Z,-0.5
2018-03-22T09:44:51.835Z,-0.4
2018-03-22T09:45:41.197Z,-0.5
2018-03-22T09:46:31.724Z,-0.4
2018-03-22T09:47:21.606Z,-0.4
2018-03-22T09:48:11.770Z,-0.5
2018-03-22T09:49:02.099Z,-0.4
2018-03-22T09:49:52.474Z,-0.5
2018-03-22T09:50:42.141Z,-0.6
2018-03-22T09:51:31.674Z,-0.6
2018-03-22T09:52:22.046Z,-0.6
2018-03-22T09:53:12.389Z,-0.6
2018-03-22T09:54:02.079Z,-0.6
2018-03-22T09:54:52.117Z,-0.7
2018-03-22T09:55:42.776Z,-0.6
2018-03-22T09:56:31.848Z,-0.8
2018-03-22T09:57:23.190Z,-0.8
2018-03-22T09:58:12.653Z,-0.8
2018-03-22T09:59:03.326Z,-0.8
2018-03-22T09:59:53.350Z,-0.9
2018-03-22T10:00:43.371Z,-0.9
2018-03-22T10:01:33.440Z,-0.9
2018-03-22T10:02:23.493Z,-0.9
2018-03-22T10:03:13.260Z,-0.9
2018-03-22T10:04:03.320Z,-0.9
2018-03-22T10:06:33.760Z,-0.9
2018-03-22T10:07:23.884Z,-0.8
2018-03-22T10:08:13.882Z,-0.9
2018-03-22T10:11:33.841Z,-1
2018-03-22T10:12:24.177Z,-1
2018-03-22T10:17:23.960Z,-0.9
2018-03-22T10:18:14.349Z,-0.8
2018-03-22T10:19:04.087Z,-0.8
2018-03-22T10:20:44.755Z,-1
2018-03-22T10:24:55.065Z,-1
2018-03-22T10:26:35.155Z,-1.1
2018-03-22T10:27:24.665Z,-1.1
2018-03-22T10:28:14.987Z,-1
2018-03-22T10:29:04.772Z,-0.9
2018-03-22T10:29:55.377Z,-0.9
2018-03-22T10:32:25.558Z,-0.9
2018-03-22T10:33:15.634Z,-0.8
2018-03-22T10:34:05.408Z,-0.8
2018-03-22T10:34:55.424Z,-0.6
2018-03-22T10:35:45.236Z,-0.7
2018-03-22T10:36:34.789Z,-0.8
2018-03-22T10:37:24.845Z,-0.7
2018-03-22T10:38:16.169Z,-0.8
2018-03-22T10:39:05.171Z,-0.8
2018-03-22T10:39:54.813Z,-0.8
2018-03-22T10:40:45.348Z,-0.7
2018-03-22T10:41:35.903Z,-0.6
2018-03-22T10:42:25.768Z,-0.4
2018-03-22T10:43:16.013Z,-0.4
2018-03-22T10:44:05.339Z,-0.6
2018-03-22T10:44:56.138Z,-0.6
2018-03-22T10:45:45.618Z,-0.4
2018-03-22T10:46:35.955Z,-0.5
2018-03-22T10:47:25.815Z,-0.5
2018-03-22T10:48:16.355Z,-0.4
2018-03-22T10:49:05.850Z,-0.5
2018-03-22T10:49:56.287Z,-0.6
2018-03-22T10:50:45.959Z,-0.6
2018-03-22T10:51:35.903Z,-0.6
2018-03-22T10:52:26.536Z,-0.6
2018-03-22T10:53:16.403Z,-0.6
2018-03-22T10:54:06.563Z,-0.4
2018-03-22T10:54:56.410Z,-0.4
2018-03-22T10:55:46.881Z,-0.4
2018-03-22T10:56:36.742Z,-0.4
2018-03-22T10:57:26.703Z,-0.4
2018-03-22T10:58:16.482Z,-0.4
2018-03-22T10:59:07.105Z,-0.3
2018-03-22T11:00:46.707Z,-0.1
2018-03-22T11:01:36.401Z,-0.1
2018-03-22T11:02:26.633Z,-0.1
2018-03-22T11:03:16.895Z,-0.1
2018-03-22T11:04:07.462Z,-0.1
2018-03-22T11:04:56.624Z,-0.2
2018-03-22T11:05:46.888Z,-0.1
2018-03-22T11:06:37.327Z,0
2018-03-22T11:07:27.389Z,0
2018-03-22T11:08:18.027Z,0.1
2018-03-22T11:09:07.572Z,0.1
2018-03-22T11:09:57.549Z,0.1
2018-03-22T11:10:47.598Z,0.1
2018-03-22T11:11:37.664Z,0.1
2018-03-22T11:12:27.740Z,0.2
2018-03-22T11:13:17.469Z,0.1
2018-03-22T11:14:08.142Z,0
2018-03-22T11:14:57.939Z,0.1
2018-03-22T11:15:48.266Z,0.1
2018-03-22T11:16:37.535Z,0.1
2018-03-22T11:17:27.762Z,0.1
2018-03-22T11:18:18.442Z,0.1
2018-03-22T11:19:07.977Z,0.1
2018-03-22T11:19:58.244Z,0
2018-03-22T11:20:48.881Z,0.1
2018-03-22T11:21:38.456Z,0.1
2018-03-22T11:22:28.686Z,0.1
2018-03-22T11:23:18.487Z,0.1
2018-03-22T11:24:08.629Z,0.1
2018-03-22T11:24:58.587Z,0.1
2018-03-22T11:25:48.746Z,0.1
2018-03-22T11:26:38.296Z,0.3
2018-03-22T11:27:28.840Z,0.3
2018-03-22T11:28:18.326Z,0.2
2018-03-22T11:29:09.156Z,0.3
2018-03-22T11:29:59.209Z,0.3